Time;durP1;ratioP1;P1;durP2;ratioP2;P2;SDS_P1;SDS_P2;PMS_P1;PMS_P2;Temp;Humidity;BMP_temperature;BMP_pressure;BME280_temperature;BME280_humidity;BME280_pressure;Samples;Min_cycle;Max_cycle;Signal;HPM_P1;HPM_P2
2023/06/13 00:01:30;;;;;;;2.75;2.47;;;17.80;67.70;;;;;;5016007;28;20030;-78
2023/06/13 00:03:57;;;;;;;4.18;3.00;;;17.80;67.70;;;;;;5017466;28;20100;-77
2023/06/13 00:06:22;;;;;;;4.05;2.80;;;17.90;67.70;;;;;;5036302;28;20120;-78
2023/06/13 00:08:48;;;;;;;5.22;2.85;;;17.90;67.70;;;;;;5035866;28;20026;-78
2023/06/13 00:11:14;;;;;;;2.70;2.45;;;17.90;67.60;;;;;;5036227;28;20047;-78
2023/06/13 00:13:41;;;;;;;2.63;2.42;;;17.90;67.50;;;;;;5035730;28;20025;-78
2023/06/13 00:16:08;;;;;;;3.13;2.58;;;17.90;67.40;;;;;;5036062;28;20030;-77
2023/06/13 00:18:37;;;;;;;4.63;2.72;;;17.90;67.40;;;;;;5035144;28;20061;-78
2023/06/13 00:21:03;;;;;;;3.35;2.85;;;17.90;67.40;;;;;;5034975;28;20033;-78
2023/06/13 00:23:29;;;;;;;5.32;2.63;;;17.90;67.30;;;;;;5018157;28;20182;-77
2023/06/13 00:25:55;;;;;;;2.50;2.30;;;17.90;67.30;;;;;;5017665;28;20535;-77
2023/06/13 00:28:21;;;;;;;3.13;2.30;;;17.90;67.30;;;;;;5034291;28;20541;-78
2023/06/13 00:30:46;;;;;;;3.15;2.30;;;17.90;67.30;;;;;;5017860;28;20034;-78
2023/06/13 00:33:18;;;;;;;2.47;2.28;;;18.00;67.30;;;;;;5035471;28;20025;-77
2023/06/13 00:35:44;;;;;;;3.60;2.85;;;17.90;67.10;;;;;;5017779;28;20036;-77
2023/06/13 00:38:12;;;;;;;4.53;3.10;;;17.90;67.10;;;;;;5017414;28;20061;-77
2023/06/13 00:40:39;;;;;;;3.17;2.70;;;17.90;67.10;;;;;;5035051;28;20021;-77
2023/06/13 00:43:05;;;;;;;2.60;2.40;;;18.00;67.20;;;;;;5017749;28;20029;-78
2023/06/13 00:45:33;;;;;;;2.78;2.58;;;18.00;67.10;;;;;;5017733;28;20030;-77
2023/06/13 00:48:04;;;;;;;3.28;2.60;;;18.00;67.10;;;;;;5017616;28;20473;-77
2023/06/13 00:50:33;;;;;;;2.55;2.35;;;18.00;67.10;;;;;;5016954;28;20486;-76
2023/06/13 00:53:04;;;;;;;3.05;2.30;;;18.00;67.00;;;;;;5035388;28;20029;-79
2023/06/13 00:55:31;;;;;;;2.90;2.42;;;18.00;67.00;;;;;;5017293;28;20038;-77
2023/06/13 00:58:02;;;;;;;2.85;2.40;;;17.90;66.90;;;;;;5035266;28;20030;-78
2023/06/13 01:00:28;;;;;;;3.17;2.40;;;17.90;66.90;;;;;;5016528;28;20037;-77
2023/06/13 01:03:02;;;;;;;3.20;2.90;;;17.90;66.90;;;;;;5035097;28;20104;-77
2023/06/13 01:05:28;;;;;;;;;;;17.90;67.00;;;;;;5035420;28;20072;-77
2023/06/13 01:07:58;;;;;;;3.58;2.40;;;17.90;67.00;;;;;;5034409;28;19979;-77
2023/06/13 01:10:29;;;;;;;3.17;2.60;;;17.90;66.90;;;;;;5016883;28;20036;-77
2023/06/13 01:13:04;;;;;;;4.35;2.78;;;17.90;66.80;;;;;;5034453;28;20036;-77
2023/06/13 01:15:34;;;;;;;3.00;2.60;;;17.80;66.80;;;;;;5017242;28;20029;-78
2023/06/13 01:18:03;;;;;;;3.53;2.58;;;17.80;66.80;;;;;;5017401;28;20172;-79
2023/06/13 01:20:31;;;;;;;4.22;2.53;;;17.80;66.90;;;;;;5034442;28;20021;-77
2023/06/13 01:23:30;;;;;;;3.40;2.38;;;17.80;67.00;;;;;;5034984;28;20388;-78
2023/06/13 01:26:20;;;;;;;3.55;2.30;;;17.90;67.00;;;;;;5034896;28;20037;-78
2023/06/13 01:28:47;;;;;;;3.70;2.50;;;17.90;66.80;;;;;;5034592;28;20528;-78
2023/06/13 01:31:16;;;;;;;3.67;2.30;;;17.90;66.80;;;;;;5016604;28;20030;-79
2023/06/13 01:33:42;;;;;;;3.17;2.40;;;17.90;66.80;;;;;;5034464;28;20041;-78
2023/06/13 01:36:08;;;;;;;3.90;2.00;;;17.90;66.80;;;;;;5034700;28;20090;-78
2023/06/13 01:38:35;;;;;;;2.42;2.22;;;17.90;66.80;;;;;;5033867;28;20030;-79
2023/06/13 01:41:01;;;;;;;3.10;2.50;;;17.90;66.70;;;;;;5016423;28;20033;-78
2023/06/13 01:43:27;;;;;;;2.83;2.42;;;17.90;66.60;;;;;;5034189;28;20022;-78
2023/06/13 01:46:05;;;;;;;2.63;2.40;;;17.90;66.60;;;;;;5035344;28;20030;-77
2023/06/13 01:48:49;;;;;;;3.35;2.60;;;17.80;66.50;;;;;;5034249;28;20031;-78
2023/06/13 01:51:33;;;;;;;2.60;2.03;;;17.80;66.50;;;;;;5033863;28;20112;-77
2023/06/13 01:54:08;;;;;;;3.75;2.35;;;17.80;66.50;;;;;;5034277;28;20026;-78
2023/06/13 01:56:35;;;;;;;4.95;2.60;;;17.80;66.50;;;;;;5015807;28;20037;-77
2023/06/13 01:59:05;;;;;;;2.95;2.08;;;17.80;66.60;;;;;;5033967;28;20033;-78
2023/06/13 02:01:35;;;;;;;3.25;2.42;;;17.80;66.60;;;;;;5015490;28;20131;-78
2023/06/13 02:04:04;;;;;;;4.10;2.30;;;17.80;66.50;;;;;;5016097;28;20116;-78
2023/06/13 02:06:30;;;;;;;3.47;2.17;;;17.80;66.50;;;;;;5015659;28;20484;-77
2023/06/13 02:08:57;;;;;;;4.93;2.00;;;17.80;66.50;;;;;;5033803;28;20034;-77
2023/06/13 02:11:22;;;;;;;2.17;1.98;;;17.90;66.50;;;;;;5015800;28;20431;-78
2023/06/13 02:13:49;;;;;;;3.47;2.40;;;17.90;66.40;;;;;;5033336;28;20029;-77
2023/06/13 02:16:17;;;;;;;2.30;2.10;;;17.80;66.20;;;;;;5033730;28;20052;-77
2023/06/13 02:18:44;;;;;;;3.17;2.38;;;17.80;66.10;;;;;;5032527;28;20033;-77
2023/06/13 02:21:09;;;;;;;2.75;2.35;;;17.80;66.20;;;;;;5015820;28;20072;-78
2023/06/13 02:23:35;;;;;;;3.58;2.45;;;17.80;66.20;;;;;;5033165;28;20030;-78
2023/06/13 02:26:01;;;;;;;2.70;2.13;;;17.80;66.20;;;;;;5033348;28;20040;-77
2023/06/13 02:28:27;;;;;;;3.33;2.53;;;17.80;66.90;;;;;;5032187;28;20547;-78
2023/06/13 02:30:53;;;;;;;4.00;2.42;;;17.80;66.30;;;;;;5033443;28;20100;-78
2023/06/13 02:33:18;;;;;;;2.33;2.13;;;17.80;66.20;;;;;;5033081;28;20021;-77
2023/06/13 02:35:48;;;;;;;3.47;2.22;;;17.80;66.20;;;;;;5033226;28;20464;-77
2023/06/13 02:38:13;;;;;;;3.13;2.63;;;17.80;66.20;;;;;;5032840;28;20025;-77
2023/06/13 02:40:39;;;;;;;3.75;2.63;;;17.80;66.20;;;;;;5033468;28;20032;-78
2023/06/13 02:43:05;;;;;;;3.35;2.20;;;17.80;66.30;;;;;;5033220;28;20387;-78
2023/06/13 02:45:31;;;;;;;2.40;2.10;;;17.80;66.40;;;;;;5033219;28;20061;-78
2023/06/13 02:47:57;;;;;;;2.45;2.22;;;17.80;66.30;;;;;;5015369;28;20135;-78
2023/06/13 02:50:22;;;;;;;4.15;2.58;;;17.80;66.30;;;;;;5032929;28;20029;-78
2023/06/13 02:52:48;;;;;;;3.50;2.38;;;17.80;66.30;;;;;;5032478;28;20541;-77
2023/06/13 02:55:14;;;;;;;2.63;2.42;;;17.80;66.30;;;;;;5033028;28;20033;-77
2023/06/13 02:57:40;;;;;;;3.00;2.30;;;17.80;66.30;;;;;;5032997;28;20095;-77
2023/06/13 03:00:08;;;;;;;2.45;1.92;;;17.80;66.40;;;;;;5032960;28;20033;-77
2023/06/13 03:02:36;;;;;;;3.33;2.22;;;17.70;66.30;;;;;;5032467;28;20087;-76
2023/06/13 03:05:06;;;;;;;3.63;2.30;;;17.80;66.40;;;;;;5014474;28;20045;-77
2023/06/13 03:07:32;;;;;;;2.33;2.13;;;17.80;66.40;;;;;;5014709;28;20127;-79
2023/06/13 03:10:03;;;;;;;2.50;2.30;;;17.70;66.30;;;;;;5033168;28;20526;-78
2023/06/13 03:12:30;;;;;;;2.45;2.08;;;17.70;66.20;;;;;;5032847;28;20106;-77
2023/06/13 03:14:56;;;;;;;3.15;2.38;;;17.70;66.40;;;;;;5032611;28;20065;-78
2023/06/13 03:17:22;;;;;;;2.67;2.25;;;17.70;66.40;;;;;;5032532;28;20030;-77
2023/06/13 03:19:48;;;;;;;2.53;2.00;;;17.70;66.50;;;;;;5032458;28;20353;-78
2023/06/13 03:22:14;;;;;;;3.22;2.50;;;17.70;66.50;;;;;;5032953;28;20460;-77
2023/06/13 03:24:47;;;;;;;3.47;2.40;;;17.70;66.50;;;;;;5032231;28;20029;-77
2023/06/13 03:27:13;;;;;;;3.47;2.40;;;17.70;66.50;;;;;;5032405;28;20056;-77
2023/06/13 03:29:40;;;;;;;2.60;1.85;;;17.70;66.40;;;;;;5032514;28;20029;-78
2023/06/13 03:32:07;;;;;;;2.65;2.28;;;17.70;66.40;;;;;;5018694;28;20112;-77
2023/06/13 03:34:37;;;;;;;2.15;2.03;;;17.70;67.00;;;;;;5034619;28;20456;-77
2023/06/13 03:37:05;;;;;;;2.58;2.38;;;17.80;66.40;;;;;;5018980;28;20375;-78
2023/06/13 03:39:30;;;;;;;2.63;2.30;;;17.80;66.40;;;;;;5036252;28;20026;-77
2023/06/13 03:41:56;;;;;;;3.00;2.17;;;17.80;66.40;;;;;;5036622;28;20385;-77
2023/06/13 03:44:22;;;;;;;3.60;2.90;;;17.80;66.30;;;;;;5036402;28;20036;-78
2023/06/13 03:46:48;;;;;;;3.75;2.80;;;17.80;66.20;;;;;;5018554;28;20033;-78
2023/06/13 03:49:13;;;;;;;2.83;2.47;;;17.80;66.10;;;;;;5036482;28;20026;-78
2023/06/13 03:51:39;;;;;;;4.18;2.97;;;17.90;66.20;;;;;;5036132;28;20411;-78
2023/06/13 03:54:04;;;;;;;4.80;3.20;;;17.90;66.20;;;;;;5035166;28;20026;-79
2023/06/13 03:56:30;;;;;;;3.35;2.78;;;17.90;66.10;;;;;;5035901;28;20041;-78
2023/06/13 03:58:56;;;;;;;4.15;3.28;;;17.90;66.20;;;;;;5018514;28;20036;-77
2023/06/13 04:01:21;;;;;;;3.60;2.85;;;18.00;66.10;;;;;;5035586;28;20025;-79
2023/06/13 04:03:47;;;;;;;3.70;2.63;;;18.00;66.10;;;;;;5035827;28;20034;-78
2023/06/13 04:06:12;;;;;;;2.30;2.10;;;18.00;66.10;;;;;;5035723;28;20095;-78
2023/06/13 04:08:39;;;;;;;2.65;2.20;;;18.00;66.00;;;;;;5035834;28;20036;-78
2023/06/13 04:11:05;;;;;;;2.35;2.10;;;18.00;66.00;;;;;;5036096;28;20036;-77
2023/06/13 04:13:31;;;;;;;3.38;2.35;;;18.00;66.00;;;;;;5035677;28;20041;-78
2023/06/13 04:15:56;;;;;;;2.40;2.17;;;18.00;66.00;;;;;;5009815;28;20037;-78
2023/06/13 04:18:23;;;;;;;2.80;2.42;;;18.00;66.00;;;;;;4998773;28;20072;-78
2023/06/13 04:20:53;;;;;;;3.15;2.20;;;18.00;66.00;;;;;;5015685;28;20037;-78
2023/06/13 04:23:19;;;;;;;4.25;2.20;;;18.10;66.00;;;;;;5015970;28;20033;-78
2023/06/13 04:25:45;;;;;;;2.40;2.20;;;18.10;66.00;;;;;;5015924;28;20030;-77
2023/06/13 04:28:13;;;;;;;5.53;2.30;;;18.10;66.60;;;;;;5015575;28;20040;-77
2023/06/13 04:30:40;;;;;;;2.92;2.25;;;18.10;66.00;;;;;;5016009;28;20044;-77
2023/06/13 04:33:14;;;;;;;2.35;2.15;;;18.10;66.00;;;;;;5016265;28;20022;-77
2023/06/13 04:35:44;;;;;;;2.90;2.60;;;18.10;66.00;;;;;;5016094;28;20124;-77
2023/06/13 04:38:20;;;;;;;3.13;2.65;;;18.10;66.00;;;;;;5016007;28;20033;-77
2023/06/13 04:40:46;;;;;;;3.53;3.03;;;18.10;66.00;;;;;;5015213;28;20037;-78
2023/06/13 04:43:14;;;;;;;3.13;2.58;;;18.10;66.00;;;;;;4996767;28;20033;-77
2023/06/13 04:45:42;;;;;;;2.75;2.53;;;18.10;66.10;;;;;;5015985;28;20652;-77
2023/06/13 04:48:09;;;;;;;3.10;2.40;;;18.10;66.10;;;;;;5009103;28;20391;-77
2023/06/13 04:50:44;;;;;;;3.40;2.40;;;18.10;66.10;;;;;;5017305;28;20448;-77
2023/06/13 04:53:11;;;;;;;2.50;2.30;;;18.20;66.20;;;;;;5017204;28;20033;-78
2023/06/13 04:55:40;;;;;;;2.60;2.40;;;18.20;66.20;;;;;;5035420;28;20037;-79
2023/06/13 04:58:06;;;;;;;4.63;2.88;;;18.20;66.20;;;;;;5034961;28;20117;-78
2023/06/13 05:00:32;;;;;;;3.95;3.10;;;18.20;66.20;;;;;;5035364;28;20036;-78
2023/06/13 05:03:01;;;;;;;3.92;2.80;;;18.20;66.30;;;;;;5035794;28;20096;-78
2023/06/13 05:05:28;;;;;;;4.10;2.47;;;18.20;66.30;;;;;;5034270;28;20059;-78
2023/06/13 05:07:59;;;;;;;2.58;2.38;;;18.20;66.30;;;;;;5033269;28;20033;-79
2023/06/13 05:10:26;;;;;;;3.13;2.25;;;18.20;66.20;;;;;;5016713;28;20025;-78
2023/06/13 05:12:52;;;;;;;2.58;2.38;;;18.30;66.20;;;;;;5034418;28;20482;-80
2023/06/13 05:15:20;;;;;;;2.50;2.30;;;18.30;66.30;;;;;;5034235;28;20033;-79
2023/06/13 05:17:46;;;;;;;2.83;2.50;;;18.20;66.20;;;;;;5016304;28;20487;-78
2023/06/13 05:20:12;;;;;;;2.10;1.90;;;18.20;66.30;;;;;;5035035;28;20029;-78
2023/06/13 05:22:39;;;;;;;2.65;2.00;;;18.30;66.40;;;;;;5034375;28;20511;-79
2023/06/13 05:25:08;;;;;;;3.38;2.53;;;18.30;66.40;;;;;;5034328;28;20029;-77
2023/06/13 05:27:34;;;;;;;4.30;3.30;;;18.30;66.50;;;;;;5016547;28;20373;-79
2023/06/13 05:30:00;;;;;;;3.30;2.90;;;18.30;66.40;;;;;;5016402;28;20052;-85
2023/06/13 05:32:26;;;;;;;4.47;2.47;;;18.40;66.40;;;;;;5034388;28;20439;-82
2023/06/13 05:34:51;;;;;;;2.80;2.13;;;18.50;66.50;;;;;;5037207;28;20049;-83
2023/06/13 05:37:18;;;;;;;2.35;2.10;;;18.50;66.40;;;;;;5032336;28;20041;-81
2023/06/13 05:39:44;;;;;;;3.80;2.50;;;18.60;66.50;;;;;;5034147;28;20045;-83
2023/06/13 05:42:10;;;;;;;4.22;2.10;;;18.60;66.30;;;;;;5036627;28;20021;-80
2023/06/13 05:44:36;;;;;;;3.70;2.17;;;18.60;66.20;;;;;;5035749;28;20533;-81
2023/06/13 05:47:02;;;;;;;2.92;2.13;;;18.70;66.20;;;;;;5043776;28;20045;-81
2023/06/13 05:49:28;;;;;;;2.70;2.40;;;18.70;66.20;;;;;;5035604;28;20048;-82
2023/06/13 05:51:54;;;;;;;3.60;2.40;;;18.70;66.10;;;;;;5003779;28;20065;-84
2023/06/13 05:54:20;;;;;;;2.47;2.28;;;18.80;66.70;;;;;;5033418;28;20037;-85
2023/06/13 05:56:46;;;;;;;2.38;2.13;;;18.80;66.10;;;;;;5032749;28;20490;-84
2023/06/13 05:59:14;;;;;;;2.30;2.10;;;18.80;66.10;;;;;;5032398;28;20384;-82
2023/06/13 06:01:45;;;;;;;2.17;1.90;;;18.70;66.10;;;;;;5033022;28;20025;-83
2023/06/13 06:04:11;;;;;;;2.53;2.00;;;18.70;66.20;;;;;;5034121;28;20021;-83
2023/06/13 06:06:37;;;;;;;1.98;1.88;;;18.80;66.20;;;;;;5032705;28;20057;-83
2023/06/13 06:09:04;;;;;;;2.03;1.83;;;18.80;66.30;;;;;;5032923;28;20476;-82
2023/06/13 06:11:31;;;;;;;2.97;2.15;;;18.80;66.20;;;;;;5033476;28;20032;-83
2023/06/13 06:13:57;;;;;;;1.73;1.63;;;18.80;66.20;;;;;;5033659;28;20032;-82
2023/06/13 06:16:22;;;;;;;3.05;2.30;;;18.80;66.20;;;;;;5032146;28;20530;-81
2023/06/13 06:18:48;;;;;;;2.20;2.00;;;18.80;66.20;;;;;;5033387;28;20061;-81
2023/06/13 06:21:14;;;;;;;2.15;1.95;;;18.80;66.30;;;;;;5032506;28;20028;-81
2023/06/13 06:23:42;;;;;;;2.88;2.15;;;18.80;66.30;;;;;;5033893;28;20037;-81
2023/06/13 06:26:08;;;;;;;2.40;2.20;;;18.80;66.30;;;;;;5033225;28;20026;-83
2023/06/13 06:28:43;;;;;;;2.65;2.45;;;18.80;66.40;;;;;;5033766;28;20112;-81
2023/06/13 06:31:09;;;;;;;2.67;1.80;;;18.80;66.30;;;;;;5032469;28;20104;-75
2023/06/13 06:33:35;;;;;;;2.88;1.83;;;18.90;66.40;;;;;;5032443;28;20121;-80
2023/06/13 06:36:00;;;;;;;4.72;2.20;;;18.80;66.30;;;;;;5031830;28;20025;-81
2023/06/13 06:38:26;;;;;;;3.78;2.47;;;18.90;66.30;;;;;;5017755;28;20052;-86
2023/06/13 06:40:52;;;;;;;4.28;2.20;;;18.90;66.30;;;;;;5047652;28;20026;-87
2023/06/13 06:43:17;;;;;;;5.00;2.28;;;18.90;66.90;;;;;;5034153;28;20040;-78
2023/06/13 06:45:43;;;;;;;1.90;1.80;;;19.00;66.30;;;;;;5033406;28;20033;-87
2023/06/13 06:48:08;;;;;;;4.95;1.92;;;19.00;66.20;;;;;;5033657;28;20037;-86
2023/06/13 06:50:34;;;;;;;3.50;2.10;;;19.10;66.20;;;;;;5033172;28;20052;-86
2023/06/13 06:53:00;;;;;;;2.30;2.10;;;19.10;66.10;;;;;;5032804;28;20037;-87
2023/06/13 06:55:25;;;;;;;3.38;2.20;;;19.10;66.00;;;;;;5033175;28;20386;-86
2023/06/13 06:57:53;;;;;;;2.00;1.85;;;19.10;65.90;;;;;;5033071;28;20460;-88
2023/06/13 07:00:19;;;;;;;2.35;2.10;;;19.10;65.90;;;;;;5015397;28;20463;-88
2023/06/13 07:02:45;;;;;;;2.30;2.10;;;19.20;66.00;;;;;;5032262;28;20040;-87
2023/06/13 07:05:11;;;;;;;2.75;2.10;;;19.30;66.00;;;;;;5032466;28;20049;-88
2023/06/13 07:07:36;;;;;;;4.80;2.00;;;19.30;65.90;;;;;;5032914;28;20054;-87
2023/06/13 07:10:04;;;;;;;1.95;1.80;;;19.40;65.90;;;;;;5031951;28;20079;-88
2023/06/13 07:12:32;;;;;;;2.25;1.90;;;19.40;65.70;;;;;;5032544;28;20030;-88
2023/06/13 07:14:58;;;;;;;2.25;2.05;;;19.50;65.60;;;;;;5032644;28;20021;-84
2023/06/13 07:17:24;;;;;;;1.95;1.83;;;19.60;66.20;;;;;;5012821;28;20029;-88
2023/06/13 07:19:49;;;;;;;2.83;1.90;;;19.70;65.40;;;;;;5012938;28;20037;-87
2023/06/13 07:22:15;;;;;;;2.83;2.17;;;19.80;65.30;;;;;;5016612;28;20034;-86
2023/06/13 07:24:41;;;;;;;5.18;2.45;;;19.90;65.10;;;;;;5015484;28;20487;-86
2023/06/13 07:27:07;;;;;;;3.58;2.22;;;20.00;65.00;;;;;;5016077;28;20037;-85
2023/06/13 07:29:33;;;;;;;2.47;2.10;;;20.10;64.90;;;;;;5014946;28;20034;-87
2023/06/13 07:32:00;;;;;;;2.35;2.15;;;20.20;64.80;;;;;;5013185;28;20420;-87
2023/06/13 07:34:26;;;;;;;2.95;2.15;;;20.30;64.70;;;;;;5013532;28;20029;-87
2023/06/13 07:36:54;;;;;;;3.60;2.30;;;20.30;64.50;;;;;;4995699;28;20040;-87
2023/06/13 07:39:20;;;;;;;2.17;1.98;;;20.40;64.50;;;;;;5012973;28;20029;-88
2023/06/13 07:41:48;;;;;;;2.55;2.08;;;20.40;64.20;;;;;;5013018;28;20112;-87
2023/06/13 07:44:14;;;;;;;2.30;2.10;;;20.50;64.20;;;;;;5012803;28;20057;-88
2023/06/13 07:46:40;;;;;;;3.13;2.33;;;20.50;64.10;;;;;;5014302;28;20042;-85
2023/06/13 07:49:06;;;;;;;3.55;2.10;;;20.50;64.00;;;;;;5001173;28;20129;-86
2023/06/13 07:51:32;;;;;;;2.67;2.35;;;20.50;64.00;;;;;;5014763;28;20416;-88
2023/06/13 07:53:57;;;;;;;2.67;2.35;;;20.60;64.00;;;;;;5020376;28;20057;-85
2023/06/13 07:56:23;;;;;;;3.03;2.30;;;20.60;63.90;;;;;;5017372;28;20037;-87
2023/06/13 07:58:49;;;;;;;3.15;2.65;;;20.60;63.90;;;;;;5013989;28;20100;-87
2023/06/13 08:01:15;;;;;;;4.00;2.10;;;20.60;63.90;;;;;;5013078;28;20030;-87
2023/06/13 08:03:43;;;;;;;2.75;2.20;;;20.60;63.90;;;;;;5013246;28;20026;-87
2023/06/13 08:06:09;;;;;;;3.67;2.10;;;20.60;63.80;;;;;;5026938;28;20052;-87
2023/06/13 08:08:35;;;;;;;3.72;2.55;;;20.60;63.80;;;;;;5032506;28;20025;-87
2023/06/13 08:11:00;;;;;;;2.25;2.00;;;20.70;63.90;;;;;;5032358;28;20061;-87
2023/06/13 08:13:26;;;;;;;4.38;2.65;;;20.70;63.70;;;;;;5032123;28;20022;-85
2023/06/13 08:15:51;;;;;;;2.30;2.10;;;20.60;63.70;;;;;;5031127;28;20474;-86
2023/06/13 08:18:17;;;;;;;3.78;2.20;;;20.60;63.70;;;;;;5035125;28;20538;-87
2023/06/13 08:20:43;;;;;;;2.80;2.50;;;20.50;63.70;;;;;;5035576;28;20419;-85
2023/06/13 08:23:08;;;;;;;2.47;2.13;;;20.50;63.80;;;;;;5036034;28;20502;-85
2023/06/13 08:25:34;;;;;;;2.55;2.35;;;20.50;63.80;;;;;;5035489;28;20100;-85
2023/06/13 08:28:00;;;;;;;4.63;2.70;;;20.40;63.90;;;;;;5035874;28;20065;-87
2023/06/13 08:30:26;;;;;;;2.50;2.30;;;20.40;63.90;;;;;;5035704;28;20559;-87
2023/06/13 08:32:52;;;;;;;3.17;2.30;;;20.40;63.90;;;;;;5035876;28;20025;-87
2023/06/13 08:35:21;;;;;;;2.60;2.40;;;20.40;63.90;;;;;;5035700;28;20028;-87
2023/06/13 08:37:47;;;;;;;2.42;2.22;;;20.40;64.00;;;;;;5038919;28;20100;-88
2023/06/13 08:40:13;;;;;;;3.15;2.30;;;20.30;64.00;;;;;;5041428;28;20022;-87
2023/06/13 08:42:39;;;;;;;2.13;1.80;;;20.30;64.10;;;;;;5026695;28;20030;-88
2023/06/13 08:45:09;;;;;;;4.32;2.80;;;20.30;64.20;;;;;;5018745;28;20032;-85
2023/06/13 08:47:35;;;;;;;3.45;1.90;;;20.30;64.20;;;;;;5036110;28;20472;-86
2023/06/13 08:50:01;;;;;;;3.25;2.30;;;20.40;64.20;;;;;;5035809;28;20103;-87
2023/06/13 08:52:32;;;;;;;4.60;2.03;;;20.40;64.20;;;;;;5035153;28;20083;-86
2023/06/13 08:55:00;;;;;;;4.45;2.35;;;20.30;64.20;;;;;;5038251;28;20029;-86
2023/06/13 08:57:27;;;;;;;2.42;2.10;;;20.40;64.20;;;;;;5019679;28;20187;-86
2023/06/13 08:59:55;;;;;;;2.30;2.10;;;20.30;64.10;;;;;;5018896;28;20029;-87
2023/06/13 09:02:23;;;;;;;3.35;2.20;;;20.30;64.20;;;;;;5017658;28;20030;-87
2023/06/13 09:04:50;;;;;;;3.35;2.50;;;20.30;64.20;;;;;;5034476;28;20456;-86
2023/06/13 09:07:18;;;;;;;3.55;2.08;;;20.30;64.40;;;;;;5034721;28;20034;-87
2023/06/13 09:09:45;;;;;;;2.47;1.92;;;20.20;64.40;;;;;;5042042;28;20036;-85
2023/06/13 09:12:16;;;;;;;2.40;2.10;;;20.20;64.50;;;;;;5039743;28;20420;-87
2023/06/13 09:14:42;;;;;;;3.90;2.40;;;20.20;64.50;;;;;;5036275;28;20033;-87
2023/06/13 09:17:08;;;;;;;3.33;2.55;;;20.20;64.50;;;;;;5034571;28;20048;-85
2023/06/13 09:19:34;;;;;;;4.60;2.42;;;20.20;64.60;;;;;;5035000;28;20026;-86
2023/06/13 09:22:00;;;;;;;3.40;2.47;;;20.20;64.50;;;;;;5034790;28;20065;-87
2023/06/13 09:24:26;;;;;;;2.72;2.17;;;20.30;64.60;;;;;;5034498;28;20026;-87
2023/06/13 09:26:52;;;;;;;4.00;2.70;;;20.30;64.60;;;;;;5034827;28;20029;-88
2023/06/13 09:29:17;;;;;;;2.47;2.20;;;20.40;64.60;;;;;;5034189;28;20026;-86
2023/06/13 09:31:43;;;;;;;2.63;2.05;;;20.40;64.50;;;;;;5016977;28;20395;-88
2023/06/13 09:34:16;;;;;;;3.10;2.50;;;20.50;64.40;;;;;;5034114;28;20026;-87
2023/06/13 09:36:43;;;;;;;3.78;2.55;;;20.60;64.40;;;;;;5034019;28;20048;-86
2023/06/13 09:39:11;;;;;;;3.03;2.63;;;20.60;64.50;;;;;;5034056;28;20095;-89
2023/06/13 09:41:37;;;;;;;2.90;2.42;;;20.60;64.10;;;;;;5033326;28;20071;-87
2023/06/13 09:44:06;;;;;;;3.97;2.60;;;20.70;64.10;;;;;;5034807;28;20029;-87
2023/06/13 09:46:36;;;;;;;3.70;2.20;;;20.60;64.10;;;;;;5033598;28;20045;-88
2023/06/13 09:49:02;;;;;;;3.65;2.33;;;20.60;64.10;;;;;;5040314;28;20053;-85
2023/06/13 09:51:32;;;;;;;2.35;2.10;;;20.70;64.10;;;;;;5035520;28;20112;-87
2023/06/13 09:53:59;;;;;;;4.30;2.45;;;20.70;64.10;;;;;;5036151;28;20021;-87
2023/06/13 09:56:24;;;;;;;2.60;2.40;;;20.70;64.10;;;;;;5037422;28;20045;-84
2023/06/13 09:58:51;;;;;;;3.08;2.60;;;20.70;64.10;;;;;;5037112;28;20025;-85
2023/06/13 10:01:18;;;;;;;2.50;2.15;;;20.80;64.10;;;;;;5036160;28;20551;-87
2023/06/13 10:03:45;;;;;;;4.00;2.55;;;20.80;64.00;;;;;;5034572;28;20034;-87
2023/06/13 10:06:11;;;;;;;3.58;2.80;;;20.90;63.80;;;;;;5016581;28;20548;-87
2023/06/13 10:08:36;;;;;;;2.30;2.10;;;20.90;63.80;;;;;;5033895;28;20044;-87
2023/06/13 10:11:08;;;;;;;3.85;2.20;;;21.00;63.80;;;;;;5033827;28;20044;-86
2023/06/13 10:13:43;;;;;;;3.60;2.60;;;20.90;63.70;;;;;;5034317;28;20022;-87
2023/06/13 10:16:11;;;;;;;2.28;2.00;;;21.00;63.80;;;;;;5033906;28;20372;-85
2023/06/13 10:18:39;;;;;;;3.90;2.38;;;21.00;63.70;;;;;;5015370;28;20079;-86
2023/06/13 10:21:08;;;;;;;3.92;2.70;;;21.00;63.60;;;;;;5033753;28;20545;-86
2023/06/13 10:23:40;;;;;;;3.20;2.60;;;21.00;63.50;;;;;;5033321;28;20032;-87
2023/06/13 10:26:08;;;;;;;2.30;2.10;;;21.00;63.60;;;;;;5019158;28;20025;-87
2023/06/13 10:28:58;;;;;;;4.28;2.30;;;21.10;63.70;;;;;;5021074;28;20117;-87
2023/06/13 10:31:47;;;;;;;5.47;2.22;;;21.10;63.60;;;;;;5034631;28;20029;-87
2023/06/13 10:34:39;;;;;;;3.25;2.28;;;21.20;63.60;;;;;;5033949;28;20022;-87
2023/06/13 10:37:30;;;;;;;2.42;2.13;;;21.30;63.40;;;;;;5006118;28;20068;-86
2023/06/13 10:40:24;;;;;;;3.17;2.10;;;21.50;63.30;;;;;;5032647;28;20041;-88
2023/06/13 10:42:55;;;;;;;2.88;2.00;;;21.60;63.00;;;;;;5015640;28;20029;-87
2023/06/13 10:45:24;;;;;;;3.90;2.22;;;21.70;62.90;;;;;;5033234;28;20031;-88
2023/06/13 10:47:53;;;;;;;2.45;2.17;;;21.70;62.80;;;;;;5032766;28;20035;-86
2023/06/13 10:50:21;;;;;;;2.63;2.42;;;21.80;62.70;;;;;;5032900;28;20556;-86
2023/06/13 10:52:50;;;;;;;3.92;2.33;;;21.80;62.60;;;;;;5033000;28;20464;-88
2023/06/13 10:55:25;;;;;;;2.70;2.30;;;21.90;62.50;;;;;;5015108;28;20044;-89
2023/06/13 10:57:52;;;;;;;3.88;2.05;;;21.90;62.50;;;;;;5033270;28;20044;-87
2023/06/13 11:00:34;;;;;;;2.28;1.77;;;21.90;62.50;;;;;;5014366;28;20026;-88
2023/06/13 11:03:09;;;;;;;2.20;2.00;;;21.90;62.40;;;;;;5014993;28;20114;-87
2023/06/13 11:05:52;;;;;;;4.50;2.10;;;21.90;62.30;;;;;;5033236;28;20148;-88
2023/06/13 11:08:23;;;;;;;3.53;2.17;;;22.00;62.30;;;;;;5033533;28;20038;-88
2023/06/13 11:10:51;;;;;;;2.05;1.85;;;22.00;62.30;;;;;;5014253;28;20025;-87
2023/06/13 11:13:21;;;;;;;5.30;1.95;;;22.00;62.40;;;;;;5034496;28;20109;-86
2023/06/13 11:15:48;;;;;;;3.83;2.30;;;22.10;62.40;;;;;;5034816;28;20064;-87
2023/06/13 11:18:14;;;;;;;2.35;2.10;;;22.10;62.20;;;;;;5017412;28;20476;-87
2023/06/13 11:20:49;;;;;;;2.20;2.00;;;22.10;62.20;;;;;;5033763;28;20022;-87
2023/06/13 11:23:22;;;;;;;2.47;2.22;;;22.10;62.00;;;;;;5032755;28;20045;-87
2023/06/13 11:25:50;;;;;;;3.63;2.13;;;22.10;61.90;;;;;;5033298;28;20025;-88
2023/06/13 11:28:17;;;;;;;2.40;2.17;;;22.10;61.90;;;;;;5032777;28;20499;-86
2023/06/13 11:30:44;;;;;;;3.13;2.30;;;22.10;62.00;;;;;;5032536;28;20033;-87
2023/06/13 11:33:13;;;;;;;3.25;2.35;;;22.10;61.90;;;;;;5033623;28;20075;-87
2023/06/13 11:35:48;;;;;;;2.08;1.88;;;22.20;61.90;;;;;;5032757;28;20037;-88
2023/06/13 11:38:19;;;;;;;2.33;1.88;;;22.20;61.90;;;;;;5015445;28;20034;-88
2023/06/13 11:40:47;;;;;;;2.50;2.30;;;22.20;61.80;;;;;;5032683;28;20025;-86
2023/06/13 11:43:13;;;;;;;2.28;2.03;;;22.30;61.70;;;;;;5035806;28;20025;-88
2023/06/13 11:45:40;;;;;;;4.97;2.53;;;22.30;61.70;;;;;;5016566;28;20025;-88
2023/06/13 11:48:06;;;;;;;3.83;2.22;;;22.30;61.70;;;;;;5036207;28;20040;-85
2023/06/13 11:50:34;;;;;;;4.82;2.30;;;22.40;61.70;;;;;;5036063;28;20043;-86
2023/06/13 11:53:07;;;;;;;4.05;2.40;;;22.50;61.60;;;;;;5037048;28;20087;-87
2023/06/13 11:55:34;;;;;;;2.67;2.20;;;22.60;61.50;;;;;;5019473;28;20041;-88
2023/06/13 11:57:59;;;;;;;3.50;2.28;;;22.70;61.40;;;;;;5036977;28;20033;-88
2023/06/13 12:00:26;;;;;;;3.33;2.03;;;22.80;61.30;;;;;;5035842;28;20040;-88
2023/06/13 12:02:55;;;;;;;3.33;2.40;;;22.90;61.10;;;;;;5036158;28;20028;-87
2023/06/13 12:05:22;;;;;;;3.67;2.40;;;23.10;60.90;;;;;;5036190;28;20183;-88
2023/06/13 12:07:49;;;;;;;5.30;2.53;;;23.10;60.60;;;;;;5036636;28;20033;-87
2023/06/13 12:10:15;;;;;;;3.63;2.40;;;23.10;60.50;;;;;;5036835;28;20064;-88
2023/06/13 12:12:57;;;;;;;3.80;2.63;;;23.10;60.40;;;;;;5035641;28;20025;-85
2023/06/13 12:15:27;;;;;;;2.80;2.25;;;23.10;60.30;;;;;;5035965;28;20021;-88
2023/06/13 12:17:56;;;;;;;2.72;2.33;;;23.10;60.40;;;;;;5037028;28;20029;-85
2023/06/13 12:20:24;;;;;;;2.75;2.38;;;23.10;61.00;;;;;;5036209;28;20425;-87
2023/06/13 12:23:01;;;;;;;3.25;2.45;;;23.10;60.30;;;;;;5035719;28;20082;-87
2023/06/13 12:25:28;;;;;;;2.53;2.00;;;23.10;60.30;;;;;;5033681;28;20171;-88
2023/06/13 12:27:55;;;;;;;4.72;2.53;;;23.00;60.40;;;;;;5034476;28;20059;-86
2023/06/13 12:30:21;;;;;;;4.63;2.50;;;22.90;60.50;;;;;;5034690;28;20033;-88
2023/06/13 12:32:56;;;;;;;2.67;2.42;;;22.90;60.50;;;;;;5037803;28;20058;-86
2023/06/13 12:35:29;;;;;;;3.35;2.30;;;22.80;60.50;;;;;;5038801;28;20040;-86
2023/06/13 12:38:03;;;;;;;4.35;2.50;;;22.70;60.60;;;;;;5038356;28;20029;-86
2023/06/13 12:40:33;;;;;;;3.97;2.50;;;22.70;60.60;;;;;;5037386;28;20434;-86
2023/06/13 12:43:01;;;;;;;2.95;2.17;;;22.70;60.70;;;;;;5035592;28;20037;-86
2023/06/13 12:45:42;;;;;;;2.50;2.30;;;22.70;60.70;;;;;;5035438;28;20029;-87
2023/06/13 12:48:16;;;;;;;4.53;2.80;;;22.70;60.50;;;;;;5033911;28;20029;-87
2023/06/13 12:50:42;;;;;;;3.45;2.47;;;22.70;61.20;;;;;;5035285;28;20032;-87
2023/06/13 12:53:08;;;;;;;3.05;2.45;;;22.70;60.70;;;;;;5033816;28;20026;-86